createdAt,value
2017-10-15T00:00:07.350Z,16.62
2017-10-15T00:02:33.991Z,13.15
2017-10-15T00:05:00.605Z,8.88
2017-10-15T00:07:27.226Z,16.80
2017-10-15T00:09:53.861Z,11.63
2017-10-15T00:12:20.472Z,12.95
2017-10-15T00:14:47.103Z,11.93
2017-10-15T00:17:13.723Z,16.48
2017-10-15T00:19:40.339Z,15.10
2017-10-15T00:22:06.967Z,16.35
2017-10-15T00:24:33.635Z,22.48
2017-10-15T00:27:00.245Z,21.95
2017-10-15T00:29:26.878Z,19.85
2017-10-15T00:31:53.498Z,21.73
2017-10-15T00:34:20.211Z,24.85
2017-10-15T00:36:46.830Z,27.05
2017-10-15T00:39:13.442Z,16.30
2017-10-15T00:41:40.074Z,23.35
2017-10-15T00:44:06.692Z,28.48
2017-10-15T00:46:33.302Z,20.73
2017-10-15T00:48:59.930Z,24.70
2017-10-15T00:51:26.548Z,21.90
2017-10-15T00:53:53.175Z,17.60
2017-10-15T00:56:19.803Z,18.23
2017-10-15T00:58:46.459Z,17.42
2017-10-15T01:01:13.090Z,16.58
2017-10-15T01:03:39.715Z,15.75
2017-10-15T01:06:06.342Z,13.93
2017-10-15T01:08:32.995Z,13.32
2017-10-15T01:10:59.606Z,12.02
2017-10-15T01:13:26.233Z,11.68
2017-10-15T01:15:52.866Z,14.65
2017-10-15T01:18:19.503Z,14.82
2017-10-15T01:20:46.115Z,14.20
2017-10-15T01:23:12.767Z,12.70
2017-10-15T01:25:39.378Z,12.45
2017-10-15T01:28:06.016Z,12.05
2017-10-15T01:30:32.738Z,12.00
2017-10-15T01:32:59.356Z,12.68
2017-10-15T01:35:25.990Z,13.32
2017-10-15T01:37:52.602Z,15.63
2017-10-15T01:40:19.220Z,15.40
2017-10-15T01:42:45.851Z,14.05
2017-10-15T01:45:12.458Z,12.30
2017-10-15T01:47:39.104Z,12.57
2017-10-15T01:50:05.753Z,12.48
2017-10-15T01:52:32.430Z,12.25
2017-10-15T01:54:59.042Z,12.93
2017-10-15T01:57:25.666Z,13.43
2017-10-15T01:59:52.269Z,17.65
2017-10-15T02:02:18.890Z,19.30
2017-10-15T02:04:45.504Z,18.67
2017-10-15T02:07:12.117Z,33.28
2017-10-15T02:09:38.747Z,27.98
2017-10-15T02:12:05.367Z,42.30
2017-10-15T02:14:31.974Z,70.35
2017-10-15T02:16:58.602Z,74.28
2017-10-15T02:19:25.214Z,85.20
2017-10-15T02:21:51.909Z,15.30
2017-10-15T02:24:18.562Z,18.17
2017-10-15T02:26:45.170Z,33.22
2017-10-15T02:29:11.821Z,55.90
2017-10-15T02:31:38.442Z,84.37
2017-10-15T02:34:05.054Z,41.78
2017-10-15T02:36:31.667Z,13.50
2017-10-15T02:38:58.374Z,31.70
2017-10-15T02:41:24.983Z,20.25
2017-10-15T02:43:51.596Z,29.55
2017-10-15T02:46:18.218Z,18.60
2017-10-15T02:48:44.830Z,27.10
2017-10-15T02:51:11.451Z,30.00
2017-10-15T02:53:38.078Z,18.98
2017-10-15T02:56:04.695Z,19.48
2017-10-15T02:58:31.370Z,15.75
2017-10-15T03:00:57.999Z,13.32
2017-10-15T03:03:24.662Z,22.87
2017-10-15T03:05:51.299Z,27.08
2017-10-15T03:08:17.928Z,19.27
2017-10-15T03:10:44.639Z,25.33
2017-10-15T03:13:11.250Z,29.17
2017-10-15T03:15:38.204Z,27.13
2017-10-15T03:18:05.152Z,30.60
2017-10-15T03:20:31.825Z,22.60
2017-10-15T03:22:58.449Z,31.92
2017-10-15T03:25:25.063Z,37.00
2017-10-15T03:27:51.887Z,20.02
2017-10-15T03:30:18.614Z,37.97
2017-10-15T03:32:45.284Z,28.70
2017-10-15T03:35:11.990Z,27.85
2017-10-15T03:37:38.706Z,21.40
2017-10-15T03:40:05.620Z,20.95
2017-10-15T03:42:32.567Z,23.85
2017-10-15T03:44:59.268Z,23.45
2017-10-15T03:47:25.879Z,18.08
2017-10-15T03:49:52.489Z,29.37
2017-10-15T03:52:19.343Z,21.08
2017-10-15T03:54:46.376Z,23.90
2017-10-15T03:57:13.230Z,15.30
2017-10-15T03:59:40.018Z,40.72
2017-10-15T04:02:06.838Z,29.87
2017-10-15T04:04:34.187Z,27.87
2017-10-15T04:07:00.868Z,14.73
2017-10-15T04:09:27.745Z,15.05
2017-10-15T04:11:54.390Z,28.38
2017-10-15T04:14:21.014Z,26.95
2017-10-15T04:16:47.639Z,16.08
2017-10-15T04:19:14.536Z,12.75
2017-10-15T04:21:41.315Z,11.70
2017-10-15T04:24:07.934Z,14.48
2017-10-15T04:26:34.730Z,24.45
2017-10-15T04:29:01.574Z,11.00
2017-10-15T04:31:28.420Z,33.88
2017-10-15T04:33:56.554Z,17.00
2017-10-15T04:36:23.847Z,11.32
2017-10-15T04:38:50.630Z,31.17
2017-10-15T04:41:17.270Z,11.15
2017-10-15T04:43:43.887Z,9.82
2017-10-15T04:46:10.566Z,15.32
2017-10-15T04:48:38.143Z,21.02
2017-10-15T04:51:04.847Z,20.73
2017-10-15T04:53:31.492Z,18.60
2017-10-15T04:55:58.116Z,11.10
2017-10-15T04:58:24.728Z,12.35
2017-10-15T05:00:51.338Z,11.52
2017-10-15T05:03:17.967Z,11.05
2017-10-15T05:05:44.574Z,14.80
2017-10-15T05:08:11.179Z,10.95
2017-10-15T05:10:37.804Z,11.45
2017-10-15T05:13:04.414Z,10.35
2017-10-15T05:15:31.043Z,12.43
2017-10-15T05:17:57.650Z,11.57
2017-10-15T05:20:24.268Z,22.58
2017-10-15T05:22:50.886Z,34.80
2017-10-15T05:25:17.493Z,32.72
2017-10-15T05:27:44.106Z,40.50
2017-10-15T05:30:10.730Z,32.53
2017-10-15T05:32:37.339Z,27.15
2017-10-15T05:35:03.950Z,62.30
2017-10-15T05:37:30.578Z,36.47
2017-10-15T05:39:57.187Z,8.35
2017-10-15T05:42:24.328Z,9.80
2017-10-15T05:44:51.022Z,15.13
2017-10-15T05:47:17.639Z,10.20
2017-10-15T05:49:44.261Z,25.45
2017-10-15T05:52:10.893Z,29.65
2017-10-15T05:54:37.585Z,19.42
2017-10-15T05:57:04.218Z,8.65
2017-10-15T05:59:30.846Z,9.73
2017-10-15T06:01:57.454Z,14.15
2017-10-15T06:04:24.059Z,9.65
2017-10-15T06:06:50.687Z,7.80
2017-10-15T06:09:17.290Z,24.77
2017-10-15T06:11:43.921Z,10.55
2017-10-15T06:14:10.535Z,8.30
2017-10-15T06:16:37.159Z,13.98
2017-10-15T06:19:03.778Z,8.43
2017-10-15T06:21:30.391Z,7.85
2017-10-15T06:23:57.003Z,9.27
2017-10-15T06:26:23.954Z,11.45
2017-10-15T06:28:50.585Z,14.52
2017-10-15T06:31:17.183Z,8.98
2017-10-15T06:33:43.807Z,9.27
2017-10-15T06:36:10.411Z,8.35
2017-10-15T06:38:37.011Z,8.82
2017-10-15T06:41:03.642Z,25.80
2017-10-15T06:43:30.253Z,82.80
2017-10-15T06:45:56.862Z,9.82
2017-10-15T06:48:23.495Z,20.23
2017-10-15T06:50:50.111Z,23.92
2017-10-15T06:53:16.723Z,22.23
2017-10-15T06:55:43.370Z,45.60
2017-10-15T06:58:09.982Z,23.80
2017-10-15T07:00:36.596Z,19.25
2017-10-15T07:03:03.232Z,24.75
2017-10-15T07:05:29.854Z,31.67
2017-10-15T07:07:56.490Z,13.50
2017-10-15T07:10:23.235Z,9.52
2017-10-15T07:12:49.865Z,13.85
2017-10-15T07:15:16.509Z,9.20
2017-10-15T07:17:43.149Z,10.68
2017-10-15T07:20:09.803Z,14.80
2017-10-15T07:22:36.427Z,24.95
2017-10-15T07:25:03.125Z,16.98
2017-10-15T07:27:29.746Z,28.30
2017-10-15T07:29:56.376Z,12.45
2017-10-15T07:32:22.983Z,15.77
2017-10-15T07:34:49.687Z,32.75
2017-10-15T07:37:16.313Z,14.57
2017-10-15T07:39:42.963Z,21.55
2017-10-15T07:42:09.598Z,13.43
2017-10-15T07:44:36.213Z,7.93
2017-10-15T07:47:02.882Z,11.80
2017-10-15T07:49:29.515Z,7.43
2017-10-15T07:51:56.142Z,8.00
2017-10-15T07:54:22.742Z,8.73
2017-10-15T07:56:49.343Z,7.32
2017-10-15T07:59:15.996Z,8.02
2017-10-15T08:01:42.603Z,8.60
2017-10-15T08:04:09.218Z,15.95
2017-10-15T08:06:35.875Z,7.47
2017-10-15T08:09:02.491Z,7.47
2017-10-15T08:11:29.108Z,8.48
2017-10-15T08:13:55.786Z,7.53
2017-10-15T08:16:22.420Z,10.05
2017-10-15T08:18:49.061Z,9.18
2017-10-15T08:21:15.700Z,8.43
2017-10-15T08:23:42.303Z,9.00
2017-10-15T08:26:08.906Z,8.20
2017-10-15T08:28:35.526Z,8.30
2017-10-15T08:31:02.136Z,8.38
2017-10-15T08:33:28.738Z,8.77
2017-10-15T08:35:55.370Z,15.80
2017-10-15T08:38:21.995Z,9.32
2017-10-15T08:40:48.632Z,10.60
2017-10-15T08:43:15.264Z,10.07
2017-10-15T08:45:41.876Z,10.60
2017-10-15T08:48:08.485Z,10.10
2017-10-15T08:50:35.112Z,10.40
2017-10-15T08:53:01.727Z,11.32
2017-10-15T08:55:28.355Z,10.40
2017-10-15T08:57:54.979Z,11.10
2017-10-15T09:00:21.615Z,11.80
2017-10-15T09:02:48.237Z,13.13
2017-10-15T09:05:14.866Z,12.70
2017-10-15T09:07:41.522Z,12.50
2017-10-15T09:10:08.134Z,13.85
2017-10-15T09:12:34.818Z,12.48
2017-10-15T09:15:01.443Z,13.07
2017-10-15T09:17:28.082Z,11.57
2017-10-15T09:19:54.799Z,12.35
2017-10-15T09:22:21.432Z,12.35
2017-10-15T09:24:48.046Z,11.52
2017-10-15T09:27:14.658Z,14.32
2017-10-15T09:29:41.287Z,12.48
2017-10-15T09:32:07.902Z,11.98
2017-10-15T09:34:34.608Z,13.43
2017-10-15T09:37:01.244Z,16.52
2017-10-15T09:39:27.850Z,25.65
2017-10-15T09:41:54.487Z,23.12
2017-10-15T09:44:21.116Z,23.05
2017-10-15T09:46:47.725Z,23.08
2017-10-15T09:49:14.334Z,16.27
2017-10-15T09:51:40.959Z,20.75
2017-10-15T09:54:07.569Z,14.90
2017-10-15T09:56:34.197Z,15.23
2017-10-15T09:59:00.819Z,20.40
2017-10-15T10:01:27.515Z,17.50
2017-10-15T10:03:54.259Z,13.18
2017-10-15T10:06:20.879Z,14.05
2017-10-15T10:08:47.523Z,19.42
2017-10-15T10:11:14.172Z,13.07
2017-10-15T10:13:40.779Z,13.52
2017-10-15T10:16:07.450Z,13.07
2017-10-15T10:18:34.089Z,11.57
2017-10-15T10:21:00.765Z,14.32
2017-10-15T10:23:27.433Z,11.82
2017-10-15T10:25:54.162Z,12.57
2017-10-15T10:28:20.796Z,17.45
2017-10-15T10:30:47.497Z,16.20
2017-10-15T10:33:14.106Z,13.23
2017-10-15T10:35:40.736Z,12.18
2017-10-15T10:38:07.382Z,17.08
2017-10-15T10:40:34.055Z,11.35
2017-10-15T10:43:00.724Z,13.32
2017-10-15T10:45:27.412Z,13.40
2017-10-15T10:47:54.106Z,11.02
2017-10-15T10:50:20.746Z,12.02
2017-10-15T10:52:47.372Z,13.85
2017-10-15T10:55:13.991Z,11.45
2017-10-15T10:57:40.628Z,10.20
2017-10-15T11:00:07.304Z,11.48
2017-10-15T11:02:33.913Z,10.95
2017-10-15T11:05:00.568Z,9.75
2017-10-15T11:07:27.178Z,12.18
2017-10-15T11:09:53.809Z,13.27
2017-10-15T11:12:20.479Z,12.90
2017-10-15T11:14:47.183Z,10.48
2017-10-15T11:17:13.797Z,9.60
2017-10-15T11:19:40.431Z,11.85
2017-10-15T11:22:07.061Z,9.02
2017-10-15T11:24:33.705Z,7.95
2017-10-15T11:27:00.328Z,9.55
2017-10-15T11:29:26.946Z,8.05
2017-10-15T11:31:53.572Z,6.97
2017-10-15T11:34:20.186Z,8.95
2017-10-15T11:36:46.799Z,12.37
2017-10-15T11:39:13.421Z,8.82
2017-10-15T11:41:40.031Z,13.35
2017-10-15T11:44:06.731Z,8.60
2017-10-15T11:46:33.368Z,6.87
2017-10-15T11:48:59.977Z,8.60
2017-10-15T11:51:26.593Z,7.37
2017-10-15T11:53:53.218Z,6.28
2017-10-15T11:56:19.830Z,5.00
2017-10-15T11:58:46.482Z,6.07
2017-10-15T12:01:13.076Z,4.85
2017-10-15T12:03:39.683Z,6.93
2017-10-15T12:06:06.314Z,16.73
2017-10-15T12:08:32.918Z,7.55
2017-10-15T12:10:59.527Z,7.00
2017-10-15T12:13:26.159Z,4.62
2017-10-15T12:15:52.780Z,5.68
2017-10-15T12:18:19.418Z,5.62
2017-10-15T12:20:46.064Z,4.15
2017-10-15T12:23:12.784Z,6.65
2017-10-15T12:25:39.490Z,5.07
2017-10-15T12:28:06.150Z,6.23
2017-10-15T12:30:32.959Z,8.30
2017-10-15T12:32:59.638Z,6.80
2017-10-15T12:35:26.291Z,9.03
2017-10-15T12:37:53.077Z,4.93
2017-10-15T12:40:19.713Z,6.00
2017-10-15T12:42:46.462Z,4.30
2017-10-15T12:45:13.230Z,3.13
2017-10-15T12:47:39.899Z,4.17
2017-10-15T12:50:06.573Z,4.13
2017-10-15T12:52:33.251Z,4.00
2017-10-15T12:54:59.916Z,4.03
2017-10-15T12:57:26.654Z,4.17
2017-10-15T12:59:53.402Z,3.20
2017-10-15T13:02:20.034Z,4.40
2017-10-15T13:04:46.642Z,5.10
2017-10-15T13:07:13.290Z,4.60
2017-10-15T13:09:40.129Z,2.90
2017-10-15T13:12:06.825Z,2.63
2017-10-15T13:14:33.546Z,2.90
2017-10-15T13:17:00.391Z,3.00
2017-10-15T13:19:27.460Z,3.97
2017-10-15T13:21:54.127Z,4.47
2017-10-15T13:24:20.808Z,2.43
2017-10-15T13:26:48.400Z,11.83
2017-10-15T13:29:15.164Z,3.23
2017-10-15T13:31:41.783Z,4.93
2017-10-15T13:34:08.378Z,3.10
2017-10-15T13:36:34.983Z,2.83
2017-10-15T13:39:01.611Z,10.73
2017-10-15T13:41:28.215Z,4.27
2017-10-15T13:43:54.957Z,8.30
2017-10-15T13:46:21.796Z,5.30
2017-10-15T13:48:48.538Z,15.97
2017-10-15T13:51:15.343Z,3.57
2017-10-15T13:53:42.120Z,5.93
2017-10-15T13:56:08.888Z,8.60
2017-10-15T13:58:35.624Z,5.37
2017-10-15T14:01:02.321Z,4.93
2017-10-15T14:03:29.161Z,5.70
2017-10-15T14:05:55.979Z,6.30
2017-10-15T14:08:22.692Z,3.80
2017-10-15T14:10:49.412Z,3.80
2017-10-15T14:13:16.092Z,3.17
2017-10-15T14:15:42.775Z,4.33
2017-10-15T14:18:09.514Z,4.83
2017-10-15T14:20:36.273Z,4.75
2017-10-15T14:23:02.967Z,3.43
2017-10-15T14:25:29.797Z,3.08
2017-10-15T14:27:56.473Z,4.28
2017-10-15T14:30:23.142Z,3.17
2017-10-15T14:32:49.816Z,4.23
2017-10-15T14:35:16.519Z,4.50
2017-10-15T14:37:43.162Z,3.83
2017-10-15T14:40:09.997Z,2.83
2017-10-15T14:42:36.738Z,3.00
2017-10-15T14:45:03.376Z,9.63
2017-10-15T14:47:30.050Z,6.70
2017-10-15T14:49:56.799Z,2.63
2017-10-15T14:52:23.498Z,2.90
2017-10-15T14:54:50.285Z,3.27
2017-10-15T14:57:16.939Z,2.60
2017-10-15T14:59:43.610Z,6.03
2017-10-15T15:02:10.292Z,3.50
2017-10-15T15:04:37.040Z,3.83
2017-10-15T15:07:03.885Z,3.83
2017-10-15T15:09:30.608Z,3.37
2017-10-15T15:11:57.245Z,3.87
2017-10-15T15:14:23.946Z,3.53
2017-10-15T15:16:50.600Z,2.60
2017-10-15T15:19:17.380Z,10.70
2017-10-15T15:21:44.127Z,13.83
2017-10-15T15:24:10.966Z,12.90
2017-10-15T15:26:37.706Z,6.03
2017-10-15T15:29:04.411Z,8.53
2017-10-15T15:31:31.191Z,4.43
2017-10-15T15:33:57.930Z,9.40
2017-10-15T15:36:24.603Z,4.00
2017-10-15T15:38:51.413Z,9.53
2017-10-15T15:41:18.159Z,8.00
2017-10-15T15:43:44.999Z,2.60
2017-10-15T15:46:11.675Z,6.40
2017-10-15T15:48:38.482Z,5.73
2017-10-15T15:51:05.203Z,4.43
2017-10-15T15:53:31.965Z,5.40
2017-10-15T15:55:58.782Z,3.43
2017-10-15T15:58:25.633Z,3.10
2017-10-15T16:00:52.267Z,4.50
2017-10-15T16:03:19.034Z,6.60
2017-10-15T16:05:45.654Z,4.47
2017-10-15T16:08:12.430Z,5.40
2017-10-15T16:10:39.171Z,4.20
2017-10-15T16:13:05.999Z,6.32
2017-10-15T16:15:32.845Z,8.07
2017-10-15T16:18:06.653Z,8.18
2017-10-15T16:20:33.597Z,9.02
2017-10-15T16:23:00.505Z,8.50
2017-10-15T16:25:29.795Z,8.95
2017-10-15T16:27:57.341Z,7.85
2017-10-15T16:30:37.764Z,7.93
2017-10-15T16:33:04.584Z,7.12
2017-10-15T16:35:35.853Z,9.68
2017-10-15T16:38:02.822Z,9.68
2017-10-15T16:40:29.922Z,12.25
2017-10-15T16:42:56.548Z,11.30
2017-10-15T16:45:23.175Z,8.90
2017-10-15T16:47:49.795Z,8.70
2017-10-15T16:50:16.433Z,9.00
2017-10-15T16:52:43.097Z,10.00
2017-10-15T16:55:10.911Z,12.88
2017-10-15T16:57:37.537Z,14.77
2017-10-15T17:00:04.154Z,16.33
2017-10-15T17:02:31.094Z,11.50
2017-10-15T17:04:57.874Z,15.02
2017-10-15T17:07:24.495Z,13.88
2017-10-15T17:09:51.119Z,13.85
2017-10-15T17:12:21.638Z,15.68
2017-10-15T17:14:48.502Z,11.80
2017-10-15T17:17:16.885Z,14.85
2017-10-15T17:19:43.694Z,11.65
2017-10-15T17:22:10.773Z,14.60
2017-10-15T17:24:38.434Z,21.92
2017-10-15T17:27:05.481Z,20.95
2017-10-15T17:29:32.111Z,13.00
2017-10-15T17:31:59.268Z,10.07
2017-10-15T17:34:26.550Z,9.55
2017-10-15T17:36:53.497Z,9.15
2017-10-15T17:39:20.546Z,9.23
2017-10-15T17:41:48.209Z,9.85
2017-10-15T17:44:14.949Z,8.38
2017-10-15T17:46:41.905Z,10.68
2017-10-15T17:49:08.740Z,13.35
2017-10-15T17:51:35.643Z,15.65
2017-10-15T17:54:02.484Z,14.20
2017-10-15T17:56:29.262Z,20.23
2017-10-15T17:58:56.266Z,18.80
2017-10-15T18:01:23.096Z,17.27
2017-10-15T18:03:49.803Z,14.98
2017-10-15T18:06:16.657Z,15.50
2017-10-15T18:08:43.299Z,14.77
2017-10-15T18:11:09.917Z,14.02
2017-10-15T18:13:36.528Z,13.95
2017-10-15T18:16:03.166Z,18.40
2017-10-15T18:18:29.811Z,14.40
2017-10-15T18:20:56.419Z,13.70
2017-10-15T18:23:23.060Z,14.60
2017-10-15T18:25:49.712Z,11.35
2017-10-15T18:28:16.342Z,12.93
2017-10-15T18:30:43.060Z,13.15
2017-10-15T18:33:09.772Z,11.45
2017-10-15T18:35:36.404Z,11.18
2017-10-15T18:38:03.264Z,10.90
2017-10-15T18:40:29.880Z,12.68
2017-10-15T18:42:56.514Z,14.05
2017-10-15T18:45:23.301Z,12.20
2017-10-15T18:47:50.558Z,10.43
2017-10-15T18:50:17.285Z,9.98
2017-10-15T18:52:44.024Z,10.07
2017-10-15T18:55:10.681Z,8.00
2017-10-15T18:57:37.435Z,8.20
2017-10-15T19:00:04.267Z,8.23
2017-10-15T19:02:30.945Z,8.73
2017-10-15T19:04:57.576Z,9.02
2017-10-15T19:07:24.182Z,10.00
2017-10-15T19:09:50.783Z,8.60
2017-10-15T19:12:17.417Z,17.98
2017-10-15T19:14:44.107Z,8.82
2017-10-15T19:17:10.834Z,11.52
2017-10-15T19:19:37.535Z,11.70
2017-10-15T19:22:04.238Z,11.55
2017-10-15T19:24:30.957Z,13.30
2017-10-15T19:26:57.673Z,14.85
2017-10-15T19:29:24.323Z,14.23
2017-10-15T19:31:51.157Z,13.52
2017-10-15T19:34:17.899Z,14.25
2017-10-15T19:36:44.632Z,11.75
2017-10-15T19:39:11.277Z,12.37
2017-10-15T19:41:38.224Z,15.45
2017-10-15T19:44:04.999Z,12.45
2017-10-15T19:46:31.750Z,18.05
2017-10-15T19:48:58.839Z,14.18
2017-10-15T19:51:25.684Z,12.18
2017-10-15T19:53:52.450Z,12.98
2017-10-15T19:56:19.099Z,17.65
2017-10-15T19:58:46.200Z,11.38
2017-10-15T20:01:12.845Z,13.60
2017-10-15T20:03:39.631Z,12.55
2017-10-15T20:06:06.289Z,12.50
2017-10-15T20:08:33.007Z,12.00
2017-10-15T20:10:59.835Z,12.52
2017-10-15T20:13:26.554Z,10.80
2017-10-15T20:15:53.487Z,10.90
2017-10-15T20:18:20.203Z,12.02
2017-10-15T20:20:46.923Z,11.68
2017-10-15T20:23:13.642Z,9.60
2017-10-15T20:25:40.343Z,13.18
2017-10-15T20:28:07.086Z,13.40
2017-10-15T20:30:38.884Z,9.80
2017-10-15T20:33:05.625Z,9.95
2017-10-15T20:35:32.325Z,12.13
2017-10-15T20:37:59.109Z,11.90
2017-10-15T20:40:25.806Z,13.75
2017-10-15T20:42:52.563Z,12.25
2017-10-15T20:45:19.322Z,10.35
2017-10-15T20:47:46.072Z,16.65
2017-10-15T20:50:12.816Z,21.55
2017-10-15T20:52:40.454Z,17.77
2017-10-15T20:55:07.365Z,16.05
2017-10-15T20:57:34.132Z,13.07
2017-10-15T21:00:00.832Z,14.52
2017-10-15T21:02:27.617Z,12.50
2017-10-15T21:04:54.389Z,13.90
2017-10-15T21:07:21.155Z,13.80
2017-10-15T21:09:47.974Z,11.70
2017-10-15T21:12:14.715Z,11.60
2017-10-15T21:14:41.494Z,11.12
2017-10-15T21:17:08.608Z,12.25
2017-10-15T21:19:35.373Z,11.88
2017-10-15T21:22:02.100Z,13.45
2017-10-15T21:24:28.877Z,17.92
2017-10-15T21:26:56.448Z,14.05
2017-10-15T21:29:23.250Z,10.65
2017-10-15T21:31:49.934Z,10.90
2017-10-15T21:34:16.617Z,17.25
2017-10-15T21:36:43.356Z,12.90
2017-10-15T21:39:10.153Z,10.70
2017-10-15T21:41:36.855Z,11.27
2017-10-15T21:44:03.599Z,12.10
2017-10-15T21:46:30.362Z,16.52
2017-10-15T21:48:57.056Z,13.32
2017-10-15T21:51:24.076Z,10.63
2017-10-15T21:53:51.056Z,14.75
2017-10-15T21:56:17.901Z,11.60
2017-10-15T21:58:44.648Z,10.65
2017-10-15T22:01:11.536Z,18.15
2017-10-15T22:03:38.157Z,11.60
2017-10-15T22:06:04.787Z,13.00
2017-10-15T22:08:31.513Z,12.20
2017-10-15T22:10:58.198Z,12.82
2017-10-15T22:13:24.951Z,12.37
2017-10-15T22:15:51.619Z,11.25
2017-10-15T22:18:24.204Z,11.27
2017-10-15T22:20:56.842Z,11.70
2017-10-15T22:23:23.462Z,13.62
2017-10-15T22:25:50.160Z,11.80
2017-10-15T22:28:16.787Z,12.45
2017-10-15T22:30:43.394Z,12.37
2017-10-15T22:33:10.006Z,11.63
2017-10-15T22:35:36.649Z,14.18
2017-10-15T22:38:03.251Z,12.37
2017-10-15T22:40:29.858Z,28.00
2017-10-15T22:42:56.482Z,12.23
2017-10-15T22:45:23.094Z,10.50
2017-10-15T22:47:49.708Z,13.05
2017-10-15T22:50:16.335Z,12.48
2017-10-15T22:52:42.941Z,10.88
2017-10-15T22:55:09.555Z,15.10
2017-10-15T22:57:36.178Z,10.00
2017-10-15T23:00:02.794Z,11.52
2017-10-15T23:02:29.409Z,10.43
2017-10-15T23:04:56.031Z,11.75
2017-10-15T23:07:22.709Z,11.43
2017-10-15T23:09:49.323Z,12.48
2017-10-15T23:12:15.943Z,9.60
2017-10-15T23:14:42.563Z,11.05
2017-10-15T23:17:09.696Z,10.15
2017-10-15T23:19:36.315Z,22.70
2017-10-15T23:22:02.930Z,19.12
2017-10-15T23:24:29.594Z,17.17
2017-10-15T23:26:56.230Z,18.37
2017-10-15T23:29:22.870Z,19.70
2017-10-15T23:31:49.613Z,15.88
2017-10-15T23:34:16.226Z,13.68
2017-10-15T23:36:42.839Z,13.85
2017-10-15T23:39:09.469Z,13.00
2017-10-15T23:41:36.113Z,11.48
2017-10-15T23:44:02.728Z,11.80
2017-10-15T23:46:29.359Z,11.57
2017-10-15T23:48:55.973Z,14.80
2017-10-15T23:51:22.591Z,16.48
2017-10-15T23:53:49.262Z,13.40
2017-10-15T23:56:15.875Z,12.63
2017-10-15T23:58:42.542Z,12.23
